Time;durP1;ratioP1;P1;durP2;ratioP2;P2;SDS_P1;SDS_P2;PMS_P1;PMS_P2;Temp;Humidity;BMP_temperature;BMP_pressure;BME280_temperature;BME280_humidity;BME280_pressure;Samples;Min_cycle;Max_cycle;Signal;HPM_P1;HPM_P2
2021/07/20 05:56:42;;;;;;;15.13;7.80;;;;;;;24.73;54.50;99896.46;1528717;85;25776;-58
2021/07/20 05:59:09;;;;;;;13.72;7.70;;;;;;;24.70;54.69;99898.33;1501348;86;21677;-59
2021/07/20 06:01:38;;;;;;;12.88;8.00;;;;;;;24.73;54.59;99904.58;1518634;86;21618;-58
2021/07/20 06:04:06;;;;;;;11.00;8.73;;;;;;;24.80;54.61;99904.91;1506082;86;21514;-58
2021/07/20 06:06:32;;;;;;;13.10;8.60;;;;;;;24.86;54.47;99907.95;1484537;86;22408;-58
2021/07/20 06:08:59;;;;;;;18.65;8.75;;;;;;;24.92;54.25;99905.61;1493849;86;21566;-59
2021/07/20 06:11:26;;;;;;;15.13;9.05;;;;;;;24.97;54.04;99908.34;1498436;86;21514;-58
2021/07/20 06:13:54;;;;;;;15.43;10.18;;;;;;;25.04;53.72;99906.27;1501415;86;21669;-59
2021/07/20 06:16:26;;;;;;;12.53;8.75;;;;;;;25.10;53.47;99906.59;1513116;86;22416;-57
2021/07/20 06:18:53;;;;;;;15.23;10.25;;;;;;;25.14;53.21;99907.73;1459625;89;21559;-59
2021/07/20 06:21:23;;;;;;;15.40;9.33;;;;;;;25.20;52.84;99913.50;1466754;89;21500;-58
2021/07/20 06:23:53;;;;;;;17.42;9.60;;;;;;;25.27;52.65;99909.77;1476867;89;21685;-58
2021/07/20 06:26:25;;;;;;;21.20;9.60;;;;;;;25.30;52.48;99899.77;1466461;89;22433;-59
2021/07/20 06:29:03;;;;;;;23.05;10.03;;;;;;;25.35;52.31;99899.82;1459869;89;21390;-60
2021/07/20 06:31:30;;;;;;;18.82;8.83;;;;;;;25.39;52.27;99903.09;1459096;88;21508;-59
2021/07/20 06:33:57;;;;;;;25.62;10.10;;;;;;;25.45;52.25;99908.02;1480202;88;21515;-58
2021/07/20 06:36:24;;;;;;;18.00;9.00;;;;;;;25.52;52.23;99905.08;1464190;89;21657;-59
2021/07/20 06:38:54;;;;;;;16.10;8.58;;;;;;;25.57;52.16;99905.94;1442168;89;21581;-60
2021/07/20 06:41:20;;;;;;;14.83;8.48;;;;;;;25.61;52.13;99900.84;1458663;89;22404;-59
2021/07/20 06:43:47;;;;;;;18.57;9.78;;;;;;;25.66;52.05;99907.11;1461850;89;21596;-59
2021/07/20 06:46:17;;;;;;;19.12;9.15;;;;;;;25.71;51.98;99913.63;1461097;89;21529;-60
2021/07/20 06:48:46;;;;;;;50.28;9.98;;;;;;;25.77;51.97;99907.17;1431143;89;21664;-59
2021/07/20 06:51:13;;;;;;;48.80;10.20;;;;;;;25.81;51.87;99911.01;1443381;89;21751;-59
2021/07/20 06:53:40;;;;;;;22.27;9.15;;;;;;;25.85;51.79;99908.07;1444698;91;21486;-59
2021/07/20 06:56:13;;;;;;;40.30;9.73;;;;;;;25.88;51.74;99912.97;1418886;91;21569;-60
2021/07/20 06:58:41;;;;;;;20.48;9.08;;;;;;;25.93;51.71;99918.43;1452261;90;21693;-59
2021/07/20 07:01:10;;;;;;;44.90;10.20;;;;;;;25.96;51.72;99916.55;1444036;90;21397;-58
2021/07/20 07:03:54;;;;;;;27.73;9.90;;;;;;;26.01;51.63;99919.81;1468359;88;22528;-58
2021/07/20 07:06:24;;;;;;;40.25;9.93;;;;;;;26.02;51.58;99915.50;1464637;88;21626;-59
2021/07/20 07:08:51;;;;;;;29.05;10.10;;;;;;;26.06;51.52;99919.84;1471857;88;21537;-59
2021/07/20 07:11:19;;;;;;;25.45;10.38;;;;;;;26.09;51.58;99919.33;1472546;88;21500;-61
2021/07/20 07:13:46;;;;;;;24.43;9.58;;;;;;;26.14;51.47;99922.62;1464994;88;21508;-60
2021/07/20 07:16:13;;;;;;;18.48;9.55;;;;;;;26.14;51.29;99919.91;1462367;88;21669;-59
2021/07/20 07:18:42;;;;;;;15.65;10.00;;;;;;;26.16;51.28;99914.50;1468494;88;21699;-58
2021/07/20 07:21:09;;;;;;;14.87;8.68;;;;;;;26.18;51.20;99918.29;1456997;88;21471;-59
2021/07/20 07:23:36;;;;;;;23.98;8.80;;;;;;;26.19;51.14;99915.33;1473088;88;21714;-57
2021/07/20 07:26:04;;;;;;;25.20;8.95;;;;;;;26.20;51.18;99914.78;1474444;88;22640;-57
2021/07/20 07:28:32;;;;;;;22.98;9.00;;;;;;;26.21;51.10;99909.63;1471530;88;21647;-59
2021/07/20 07:30:59;;;;;;;32.93;10.30;;;;;;;26.23;51.07;99917.78;1455506;88;21574;-58
2021/07/20 07:33:26;;;;;;;18.42;8.95;;;;;;;26.26;51.12;99924.03;1474147;88;21582;-58
2021/07/20 07:36:00;;;;;;;27.07;9.45;;;;;;;26.28;51.11;99914.28;1456714;88;21684;-59
2021/07/20 07:38:25;;;;;;;21.77;10.00;;;;;;;26.30;51.19;99916.20;1449320;88;21508;-59
2021/07/20 07:40:56;;;;;;;24.72;9.48;;;;;;;26.32;51.14;99914.02;1476485;88;21679;-60
2021/07/20 07:43:29;;;;;;;16.15;7.58;;;;;;;26.34;51.14;99917.30;1464688;88;21693;-60
2021/07/20 07:45:59;;;;;;;16.70;9.50;;;;;;;26.36;51.15;99913.78;1462283;88;21538;-59
2021/07/20 07:48:27;;;;;;;16.85;8.60;;;;;;;26.38;51.13;99918.93;1463878;88;22476;-60
2021/07/20 07:50:56;;;;;;;30.35;9.65;;;;;;;26.39;51.18;99910.55;1470850;88;22550;-59
2021/07/20 07:53:25;;;;;;;18.82;9.18;;;;;;;26.41;51.05;99919.75;1474923;88;21692;-59
2021/07/20 07:55:54;;;;;;;18.77;8.85;;;;;;;26.43;51.13;99919.77;1464936;88;21492;-61
2021/07/20 07:58:23;;;;;;;16.85;9.45;;;;;;;26.45;51.13;99923.05;1468868;88;22469;-59
2021/07/20 08:00:51;;;;;;;16.67;9.13;;;;;;;26.47;51.10;99924.96;1489039;88;21582;-59
2021/07/20 08:03:18;;;;;;;15.65;9.33;;;;;;;26.49;51.08;99928.20;1435964;88;21744;-60
2021/07/20 08:05:47;;;;;;;15.03;8.78;;;;;;;26.50;51.05;99921.75;1480767;88;21619;-59
2021/07/20 08:11:05;;;;;;;18.60;9.20;;;;;;;26.54;50.99;99928.27;1440269;90;21450;-62
2021/07/20 08:13:34;;;;;;;12.15;8.28;;;;;;;26.55;50.95;99932.59;1463042;90;21684;-59
2021/07/20 08:16:01;;;;;;;16.85;8.70;;;;;;;26.57;50.96;99927.47;1424923;90;21499;-59
2021/07/20 08:18:29;;;;;;;18.55;8.75;;;;;;;26.59;50.92;99933.45;1456732;90;22064;-59
2021/07/20 08:21:04;;;;;;;25.97;10.30;;;;;;;26.59;50.89;99933.45;1433847;90;21674;-58
2021/07/20 08:23:32;;;;;;;16.57;9.00;;;;;;;26.62;50.94;99935.63;1444712;90;21515;-59
2021/07/20 08:26:06;;;;;;;17.80;8.20;;;;;;;26.62;50.92;99933.73;1442242;90;21589;-59
2021/07/20 08:28:49;;;;;;;17.95;9.05;;;;;;;26.64;51.09;99934.80;1436518;90;21500;-59
2021/07/20 08:31:18;;;;;;;17.87;9.05;;;;;;;26.65;50.97;99937.81;1450920;90;21412;-59
2021/07/20 08:33:47;;;;;;;15.08;8.93;;;;;;;26.66;50.90;99942.96;1438711;90;21545;-59
2021/07/20 08:36:17;;;;;;;15.13;8.73;;;;;;;26.68;50.90;99939.99;1426585;90;21667;-58
2021/07/20 08:38:49;;;;;;;;;;;;;;;26.69;50.87;99941.61;1449939;89;22402;-60
2021/07/20 08:41:45;;;;;;;14.00;8.43;;;;;;;26.71;50.88;99938.10;1453740;90;20363;-59
2021/07/20 08:44:30;;;;;;;15.75;8.50;;;;;;;26.72;50.87;99937.82;1419823;91;21523;-59
2021/07/20 08:47:18;;;;;;;14.35;8.80;;;;;;;26.74;50.91;99943.00;1428756;91;21420;-59
2021/07/20 08:50:14;;;;;;;15.72;8.23;;;;;;;26.76;50.86;99940.84;1434592;91;21560;-58
2021/07/20 08:52:57;;;;;;;16.23;8.28;;;;;;;26.78;50.88;99949.52;1430487;91;21722;-59
2021/07/20 08:55:28;;;;;;;16.35;8.45;;;;;;;26.78;50.95;99939.47;1435519;91;22411;-59
2021/07/20 08:58:05;;;;;;;15.85;8.28;;;;;;;26.81;50.91;99944.91;1436644;91;21486;-58
2021/07/20 09:00:46;;;;;;;13.08;7.97;;;;;;;26.81;50.91;99942.19;1430032;91;21530;-61
2021/07/20 09:03:32;;;;;;;15.13;8.48;;;;;;;26.84;50.90;99940.30;1436042;91;21608;-60
2021/07/20 09:06:03;;;;;;;20.20;7.97;;;;;;;26.84;50.90;99948.45;1401259;91;21748;-58
2021/07/20 09:08:47;;;;;;;12.68;7.45;;;;;;;26.87;50.82;99947.91;1414105;91;21516;-57
2021/07/20 09:11:46;;;;;;;13.45;8.23;;;;;;;26.86;50.76;99946.28;1427001;91;22462;-58
2021/07/20 09:14:49;;;;;;;13.45;7.47;;;;;;;26.87;50.78;99944.38;1434744;91;21545;-57
2021/07/20 09:18:00;;;;;;;15.65;8.73;;;;;;;26.89;50.78;99940.32;1438149;91;21679;-58
2021/07/20 09:20:37;;;;;;;16.52;8.18;;;;;;;26.90;50.76;99943.33;1411310;93;21450;-58
2021/07/20 09:23:26;;;;;;;10.65;7.72;;;;;;;26.92;50.73;99947.12;1398046;93;22374;-58
2021/07/20 09:26:09;;;;;;;12.00;8.25;;;;;;;26.95;50.76;99943.86;1406274;93;21574;-56
2021/07/20 09:28:41;;;;;;;17.07;7.40;;;;;;;26.96;50.76;99952.30;1403958;93;21494;-59
2021/07/20 09:31:13;;;;;;;15.88;8.85;;;;;;;26.98;50.74;99942.78;1398151;93;22544;-60
2021/07/20 09:33:56;;;;;;;9.60;7.67;;;;;;;27.00;50.64;99939.81;1400396;93;21596;-59
2021/07/20 09:36:53;;;;;;;12.90;7.75;;;;;;;27.00;50.30;99944.70;1401211;93;21508;-60
2021/07/20 09:39:51;;;;;;;18.48;8.65;;;;;;;27.00;50.30;99944.70;1417993;93;21486;-59
2021/07/20 09:42:40;;;;;;;29.60;8.60;;;;;;;27.01;50.29;99946.31;1396366;92;21721;-59
2021/07/20 09:45:21;;;;;;;27.32;8.75;;;;;;;27.03;50.13;99956.12;1414755;92;21544;-59
2021/07/20 09:48:07;;;;;;;22.90;8.93;;;;;;;27.05;50.32;99953.41;1429936;92;21494;-60
2021/07/20 09:50:38;;;;;;;20.97;8.28;;;;;;;27.08;50.34;99956.94;1420283;92;21671;-59
2021/07/20 09:53:48;;;;;;;23.22;9.28;;;;;;;27.10;50.35;99960.19;1410108;92;21649;-60
2021/07/20 09:56:23;;;;;;;22.90;7.65;;;;;;;27.14;50.34;99959.13;1419708;92;21626;-61
2021/07/20 09:59:23;;;;;;;17.70;8.28;;;;;;;27.16;50.35;99964.60;1412813;92;21670;-60
2021/07/20 10:02:26;;;;;;;18.98;8.35;;;;;;;27.18;50.41;99967.03;1417780;92;21679;-60
2021/07/20 10:05:14;;;;;;;23.90;9.10;;;;;;;27.20;50.37;99963.52;1414758;92;21523;-61
2021/07/20 10:07:58;;;;;;;17.27;8.30;;;;;;;27.21;50.47;99971.37;1426747;91;21492;-60
2021/07/20 10:10:44;;;;;;;20.23;8.45;;;;;;;27.22;50.36;99974.39;1405754;91;21729;-60
2021/07/20 10:13:34;;;;;;;15.48;8.48;;;;;;;27.23;50.40;99973.30;1413307;92;22409;-61
2021/07/20 10:16:21;;;;;;;14.33;8.03;;;;;;;27.25;50.40;99974.39;1418854;92;22701;-61
2021/07/20 10:19:09;;;;;;;20.48;8.38;;;;;;;27.26;50.42;99975.20;1427773;92;21759;-61
2021/07/20 10:21:39;;;;;;;18.02;8.60;;;;;;;27.26;50.35;99973.84;1412822;92;21566;-61
2021/07/20 10:24:14;;;;;;;;;;;;;;;27.28;50.32;99975.22;1414449;92;21626;-61
2021/07/20 10:27:07;;;;;;;19.82;8.35;;;;;;;27.29;50.32;99973.31;1409608;92;20774;-61
2021/07/20 10:30:04;;;;;;;18.17;9.15;;;;;;;27.30;50.25;99979.81;1423011;92;21559;-61
2021/07/20 10:33:17;;;;;;;20.68;8.38;;;;;;;27.30;50.19;99978.45;1415782;92;21606;-61
2021/07/20 10:36:21;;;;;;;16.62;8.03;;;;;;;27.31;50.10;99973.31;1435143;92;21554;-62
2021/07/20 10:38:55;;;;;;;14.00;7.97;;;;;;;27.31;50.00;99980.11;1402133;92;21516;-61
2021/07/20 10:41:27;;;;;;;16.42;7.45;;;;;;;27.30;49.92;99978.45;1424618;91;21510;-63
2021/07/20 10:44:14;;;;;;;18.48;8.78;;;;;;;27.30;49.89;99980.36;1413008;92;21555;-62
2021/07/20 10:46:44;;;;;;;19.85;8.03;;;;;;;27.29;49.97;99974.12;1400945;92;21665;-60
2021/07/20 10:49:29;;;;;;;;;;;;;;;27.27;49.77;99980.91;1398688;92;21679;-61
2021/07/20 10:52:04;;;;;;;17.98;8.73;;;;;;;27.23;49.51;99988.78;1407048;92;20346;-61
2021/07/20 10:54:42;;;;;;;15.23;8.08;;;;;;;27.18;48.79;99981.97;1399742;92;21581;-61
2021/07/20 10:57:12;;;;;;;15.98;9.23;;;;;;;27.14;48.43;99976.78;1416392;92;22568;-60
2021/07/20 11:00:08;;;;;;;15.32;7.95;;;;;;;27.09;48.38;99978.13;1399127;92;21614;-61
2021/07/20 11:03:06;;;;;;;19.50;8.83;;;;;;;27.06;48.36;99975.40;1418873;92;22531;-62
2021/07/20 11:05:35;;;;;;;16.90;9.13;;;;;;;27.03;48.08;99975.12;1407351;92;21681;-60
2021/07/20 11:08:06;;;;;;;11.95;8.65;;;;;;;26.99;48.07;99981.09;1413807;92;21503;-60
2021/07/20 11:10:37;;;;;;;21.60;10.20;;;;;;;26.98;48.09;99978.63;1403249;92;21555;-60
2021/07/20 11:13:10;;;;;;;11.35;8.58;;;;;;;26.96;48.19;99983.53;1414254;92;21466;-61
2021/07/20 11:15:41;;;;;;;15.55;9.05;;;;;;;26.95;47.87;99991.38;1401646;92;22582;-60
2021/07/20 11:18:14;;;;;;;18.12;8.35;;;;;;;26.93;47.87;99986.23;1413122;92;21532;-59
2021/07/20 11:20:44;;;;;;;13.13;8.95;;;;;;;26.92;47.83;99979.70;1427614;92;21452;-61
2021/07/20 11:23:12;;;;;;;15.58;9.13;;;;;;;26.90;47.81;99982.70;1414070;92;21674;-61
2021/07/20 11:25:41;;;;;;;11.97;9.00;;;;;;;26.89;47.65;99999.23;1387310;92;21632;-60
2021/07/20 11:28:08;;;;;;;11.53;8.08;;;;;;;26.87;47.54;100000.84;1387761;92;21555;-59
2021/07/20 11:30:38;;;;;;;14.07;8.70;;;;;;;26.84;47.56;99997.31;1384673;91;21473;-60
2021/07/20 11:33:16;;;;;;;16.45;9.03;;;;;;;26.83;47.60;99995.69;1418043;91;21671;-60
2021/07/20 11:35:47;;;;;;;14.85;8.40;;;;;;;26.83;47.58;99997.05;1415180;92;21450;-60
2021/07/20 11:38:17;;;;;;;17.70;8.18;;;;;;;26.83;47.62;99992.97;1416615;92;21523;-61
2021/07/20 11:41:01;;;;;;;14.45;8.03;;;;;;;26.84;47.54;99993.78;1420316;91;21495;-60
2021/07/20 11:44:00;;;;;;;12.43;8.25;;;;;;;26.83;47.43;99992.97;1406579;92;22612;-61
2021/07/20 11:46:27;;;;;;;13.40;8.20;;;;;;;26.83;47.44;99995.69;1439861;90;21577;-61
2021/07/20 11:48:57;;;;;;;17.23;8.75;;;;;;;26.81;47.55;99995.13;1439418;90;21531;-65
2021/07/20 11:51:50;;;;;;;17.02;8.28;;;;;;;26.81;47.46;99997.84;1439194;90;21529;-61
2021/07/20 11:54:51;;;;;;;17.05;9.15;;;;;;;26.80;47.54;99993.50;1456331;90;21602;-61
2021/07/20 11:57:42;;;;;;;11.18;8.45;;;;;;;26.82;47.53;99991.35;1438557;90;21554;-60
2021/07/20 12:00:21;;;;;;;12.18;7.78;;;;;;;26.82;47.63;99997.33;1445732;90;21473;-60
2021/07/20 12:03:26;;;;;;;14.80;8.53;;;;;;;26.82;47.48;99995.97;1448947;90;21472;-60
2021/07/20 12:06:18;;;;;;;15.32;8.40;;;;;;;26.82;47.51;99995.42;1460499;90;22442;-61
2021/07/20 12:09:41;;;;;;;15.63;9.20;;;;;;;26.82;47.46;99999.50;1454344;90;21597;-60
2021/07/20 12:12:08;;;;;;;14.10;8.18;;;;;;;26.80;47.44;99996.22;1458836;89;21503;-61
2021/07/20 12:14:35;;;;;;;16.45;7.80;;;;;;;26.78;47.42;100009.23;1438022;89;21473;-60
2021/07/20 12:17:04;;;;;;;18.52;8.40;;;;;;;26.76;47.35;99998.66;1430915;90;21593;-61
2021/07/20 12:19:35;;;;;;;19.75;9.45;;;;;;;26.77;47.37;99994.03;1427342;90;22537;-61
2021/07/20 12:22:08;;;;;;;16.55;8.83;;;;;;;26.77;47.37;99994.03;1448795;89;21473;-61
2021/07/20 12:24:36;;;;;;;12.30;7.58;;;;;;;26.77;47.28;99992.13;1431537;90;22546;-60
2021/07/20 12:27:07;;;;;;;14.25;8.48;;;;;;;26.78;47.26;99991.05;1439307;90;21515;-60
2021/07/20 12:29:43;;;;;;;16.60;9.65;;;;;;;26.80;47.32;99982.65;1442023;90;21694;-60
2021/07/20 12:32:16;;;;;;;19.25;8.48;;;;;;;26.79;47.32;99987.81;1451764;89;21539;-61
2021/07/20 12:34:44;;;;;;;10.23;7.87;;;;;;;26.80;47.33;99981.29;1437961;90;21562;-59
2021/07/20 12:37:11;;;;;;;11.83;7.97;;;;;;;26.81;47.43;99988.34;1462023;89;22627;-60
2021/07/20 12:39:41;;;;;;;21.10;8.83;;;;;;;26.82;47.47;99980.49;1429502;90;22562;-60
2021/07/20 12:42:08;;;;;;;15.48;8.25;;;;;;;26.83;47.38;99988.09;1451619;90;21495;-61
2021/07/20 12:44:37;;;;;;;13.05;8.73;;;;;;;26.84;47.35;99985.09;1416276;89;21754;-59
2021/07/20 12:47:11;;;;;;;13.78;8.18;;;;;;;26.84;47.37;99983.73;1441058;89;21531;-61
2021/07/20 12:49:41;;;;;;;20.12;9.23;;;;;;;26.84;47.40;99981.02;1447419;89;21694;-61
2021/07/20 12:52:09;;;;;;;9.48;7.30;;;;;;;26.85;47.39;99981.31;1449073;89;21815;-62
2021/07/20 12:54:40;;;;;;;14.05;7.85;;;;;;;26.89;47.43;99985.66;1465596;89;21420;-61
2021/07/20 12:57:10;;;;;;;9.15;7.75;;;;;;;26.88;47.43;99982.14;1461677;89;22611;-61
2021/07/20 12:59:43;;;;;;;9.83;8.18;;;;;;;26.87;47.39;99977.77;1447625;89;21538;-60
2021/07/20 13:02:17;;;;;;;15.10;8.58;;;;;;;26.87;47.38;99981.84;1459170;89;21709;-62
2021/07/20 13:04:48;;;;;;;12.37;7.83;;;;;;;26.87;47.22;99983.20;1438938;89;21509;-60
2021/07/20 13:07:17;;;;;;;12.63;8.20;;;;;;;26.88;46.97;99993.55;1447607;89;21598;-61
2021/07/20 13:09:48;;;;;;;11.90;9.10;;;;;;;26.89;46.68;99998.69;1464416;89;21701;-61
2021/07/20 13:12:21;;;;;;;12.35;7.67;;;;;;;26.90;46.69;100001.70;1451038;89;22559;-61
2021/07/20 13:14:48;;;;;;;12.68;9.08;;;;;;;26.88;46.79;99993.00;1470258;89;21606;-61
2021/07/20 13:17:20;;;;;;;20.00;8.98;;;;;;;26.89;46.77;99994.63;1441884;89;21539;-60
2021/07/20 13:19:47;;;;;;;10.68;8.30;;;;;;;26.89;46.86;99996.52;1445559;89;21662;-59
2021/07/20 13:22:25;;;;;;;13.55;8.33;;;;;;;26.89;46.88;99991.91;1466254;89;21687;-60
2021/07/20 13:24:53;;;;;;;10.10;7.90;;;;;;;26.91;46.83;99983.51;1442017;89;21703;-60
2021/07/20 13:27:20;;;;;;;13.65;9.48;;;;;;;26.90;46.82;99986.77;1453563;89;21723;-60
2021/07/20 13:29:49;;;;;;;10.18;7.78;;;;;;;26.91;46.80;99988.39;1447698;89;22596;-60
2021/07/20 13:32:15;;;;;;;12.33;9.05;;;;;;;26.93;46.87;100001.17;1440332;89;21545;-61
2021/07/20 13:34:41;;;;;;;13.28;8.18;;;;;;;26.92;46.85;99995.99;1462746;89;21457;-61
2021/07/20 13:37:08;;;;;;;10.58;8.73;;;;;;;26.92;46.76;99991.38;1457815;89;21680;-60
2021/07/20 13:39:37;;;;;;;13.72;7.92;;;;;;;26.92;46.82;99999.52;1461296;89;22522;-61
2021/07/20 13:42:04;;;;;;;13.20;8.45;;;;;;;26.91;46.82;99995.73;1422826;89;21524;-61
2021/07/20 13:44:32;;;;;;;11.22;7.95;;;;;;;26.92;46.66;100009.02;1459535;89;21561;-60
2021/07/20 13:46:59;;;;;;;13.70;8.58;;;;;;;26.92;46.72;100010.37;1467983;89;21420;-61
2021/07/20 13:49:28;;;;;;;9.40;7.92;;;;;;;26.93;46.52;100006.59;1451778;89;21508;-61
2021/07/20 13:51:57;;;;;;;13.85;8.80;;;;;;;26.93;45.96;100006.59;1453780;89;21508;-60
2021/07/20 13:54:26;;;;;;;15.40;8.08;;;;;;;26.94;45.89;100012.30;1459688;89;21752;-60
2021/07/20 13:56:55;;;;;;;14.10;8.13;;;;;;;26.94;46.05;100008.22;1470307;89;21545;-60
2021/07/20 13:59:41;;;;;;;18.85;8.43;;;;;;;26.97;46.13;100002.26;1531043;85;25669;-61
2021/07/20 14:02:11;;;;;;;15.43;8.30;;;;;;;26.93;46.05;100007.11;1521612;86;22468;-61
2021/07/20 14:04:38;;;;;;;11.55;7.50;;;;;;;26.97;45.89;100009.59;1512522;86;21447;-62
2021/07/20 14:07:05;;;;;;;14.60;9.20;;;;;;;26.99;45.86;100004.17;1495391;86;21529;-62
2021/07/20 14:09:34;;;;;;;10.43;8.38;;;;;;;27.03;45.80;100007.71;1476906;86;21787;-59
2021/07/20 14:12:02;;;;;;;11.57;8.50;;;;;;;27.04;45.73;100003.91;1507256;86;21329;-62
2021/07/20 14:14:29;;;;;;;8.98;6.85;;;;;;;27.07;45.60;100010.16;1505652;86;21507;-62
2021/07/20 14:16:56;;;;;;;10.32;6.95;;;;;;;27.11;45.38;100010.72;1495101;86;21559;-62
2021/07/20 14:19:23;;;;;;;12.35;8.05;;;;;;;27.13;45.19;100015.88;1504057;86;21655;-62
2021/07/20 14:21:50;;;;;;;14.80;7.75;;;;;;;27.14;45.30;100014.81;1501038;86;21668;-62
2021/07/20 14:24:19;;;;;;;12.33;7.62;;;;;;;27.14;45.22;100014.81;1501886;86;21566;-62
2021/07/20 14:26:56;;;;;;;12.98;8.20;;;;;;;27.13;45.05;100015.88;1446555;89;21648;-62
2021/07/20 14:29:27;;;;;;;10.72;7.22;;;;;;;27.13;44.90;100021.30;1457415;89;21596;-62
2021/07/20 14:32:07;;;;;;;11.83;7.42;;;;;;;27.12;44.63;100023.20;1463242;89;21582;-62
2021/07/20 14:34:47;;;;;;;13.95;7.53;;;;;;;27.11;44.46;100023.50;1475559;89;21515;-62
2021/07/20 14:37:49;;;;;;;13.60;7.47;;;;;;;27.10;44.33;100021.84;1462764;89;21581;-62
2021/07/20 14:40:31;;;;;;;7.58;6.75;;;;;;;27.08;44.12;100024.03;1468183;89;21478;-62
2021/07/20 14:43:02;;;;;;;14.33;7.33;;;;;;;27.05;43.72;100017.77;1463641;89;21582;-63
2021/07/20 14:45:31;;;;;;;14.55;7.33;;;;;;;27.00;43.70;100024.80;1436504;91;21685;-62
2021/07/20 14:48:03;;;;;;;11.83;6.35;;;;;;;26.97;43.49;100019.91;1435966;91;22308;-62
2021/07/20 14:50:34;;;;;;;12.75;7.05;;;;;;;26.95;43.42;100017.98;1445146;91;21722;-62
2021/07/20 14:53:22;;;;;;;10.78;6.90;;;;;;;26.93;43.53;100017.98;1442319;90;21692;-62
2021/07/20 14:55:52;;;;;;;9.40;7.00;;;;;;;26.90;43.60;100021.23;1461528;89;21574;-62
2021/07/20 14:58:22;;;;;;;;;;;;;;;26.87;43.48;100028.00;1431501;90;21767;-62
2021/07/20 15:01:04;;;;;;;;;;;;;;;26.86;43.33;100029.09;1452456;89;20345;-61
2021/07/20 15:03:38;;;;;;;11.88;6.97;;;;;;;26.83;43.55;100030.98;1443498;90;20293;-61
2021/07/20 15:06:16;;;;;;;8.78;6.58;;;;;;;26.81;43.34;100029.61;1460420;88;21729;-60
2021/07/20 15:08:53;;;;;;;13.53;7.10;;;;;;;26.79;43.29;100027.17;1455566;89;21428;-61
2021/07/20 15:11:30;;;;;;;7.40;6.10;;;;;;;26.77;43.07;100027.97;1487131;88;22712;-61
2021/07/20 15:14:26;;;;;;;9.80;6.92;;;;;;;26.75;43.27;100027.41;1434211;89;21678;-62
2021/07/20 15:17:11;;;;;;;9.13;6.78;;;;;;;26.73;43.34;100037.19;1481731;87;22469;-63
2021/07/20 15:19:43;;;;;;;9.28;6.50;;;;;;;26.74;43.36;100042.08;1450079;89;21663;-63
2021/07/20 15:22:19;;;;;;;11.57;7.20;;;;;;;26.71;43.01;100038.53;1480976;88;21574;-63
2021/07/20 15:24:51;;;;;;;9.13;5.72;;;;;;;26.70;42.38;100039.59;1488982;88;21655;-62
2021/07/20 15:27:22;;;;;;;9.48;6.00;;;;;;;26.66;42.27;100046.64;1469339;87;21736;-62
2021/07/20 15:29:58;;;;;;;8.45;6.10;;;;;;;26.62;42.71;100042.83;1457148;89;21582;-62
2021/07/20 15:32:30;;;;;;;10.15;6.90;;;;;;;26.59;42.59;100046.07;1483495;88;21556;-62
2021/07/20 15:34:58;;;;;;;10.75;6.37;;;;;;;26.58;42.92;100059.34;1486893;88;22476;-62
2021/07/20 15:37:30;;;;;;;8.88;6.47;;;;;;;26.52;42.78;100051.16;1469545;88;22439;-63
2021/07/20 15:40:14;;;;;;;10.32;6.62;;;;;;;26.50;42.58;100059.32;1457141;89;21552;-63
2021/07/20 15:42:44;;;;;;;9.20;6.37;;;;;;;26.46;42.72;100057.61;1468136;88;22643;-64
2021/07/20 15:45:24;;;;;;;9.35;6.60;;;;;;;26.43;42.62;100059.49;1481735;88;21636;-62
2021/07/20 15:47:53;;;;;;;;;;;;;;;26.40;42.36;100058.66;1487127;87;21651;-62
2021/07/20 15:50:24;;;;;;;8.65;6.12;;;;;;;26.37;42.39;100057.02;1470972;87;20381;-63
2021/07/20 15:52:53;;;;;;;7.60;6.05;;;;;;;26.32;42.26;100065.38;1481020;88;21640;-63
2021/07/20 15:55:23;;;;;;;7.83;6.40;;;;;;;26.27;41.57;100068.63;1482255;88;21757;-64
2021/07/20 15:57:51;;;;;;;11.08;5.90;;;;;;;26.23;41.95;100072.38;1480048;88;21772;-64
2021/07/20 16:00:23;;;;;;;9.20;5.20;;;;;;;26.19;42.19;100074.53;1473581;88;21471;-64
2021/07/20 16:02:51;;;;;;;9.15;5.78;;;;;;;26.17;42.29;100080.73;1457462;87;22587;-64
2021/07/20 16:05:19;;;;;;;7.87;6.10;;;;;;;26.13;42.41;100087.23;1442684;90;21560;-64
2021/07/20 16:07:48;;;;;;;7.05;5.25;;;;;;;26.11;42.38;100084.76;1464934;88;21626;-64
2021/07/20 16:10:18;;;;;;;7.72;5.53;;;;;;;26.09;42.62;100084.19;1459214;88;21529;-64
2021/07/20 16:12:47;;;;;;;10.63;6.20;;;;;;;26.08;43.05;100089.89;1444188;90;21457;-64
2021/07/20 16:15:33;;;;;;;14.73;6.00;;;;;;;26.05;43.34;100088.51;1470230;88;21530;-63
2021/07/20 16:18:15;;;;;;;9.28;5.70;;;;;;;26.08;43.43;100087.98;1460977;88;21593;-65
2021/07/20 16:20:47;;;;;;;9.58;5.92;;;;;;;26.07;43.56;100082.84;1436818;90;21465;-64
2021/07/20 16:23:17;;;;;;;8.13;6.35;;;;;;;26.07;43.69;100080.94;1464299;87;21551;-65
2021/07/20 16:25:44;;;;;;;12.45;5.95;;;;;;;26.07;43.63;100080.94;1443022;90;21726;-65
2021/07/20 16:28:14;;;;;;;8.18;6.70;;;;;;;26.08;43.38;100089.89;1476656;88;22535;-64
2021/07/20 16:30:44;;;;;;;9.28;6.72;;;;;;;26.08;43.52;100096.12;1465385;88;21759;-64
2021/07/20 16:33:13;;;;;;;11.70;6.12;;;;;;;26.07;43.52;100094.50;1444346;90;21479;-65
2021/07/20 16:35:41;;;;;;;7.50;5.97;;;;;;;26.06;43.56;100099.62;1472417;88;21536;-64
2021/07/20 16:38:19;;;;;;;7.10;6.25;;;;;;;26.07;43.49;100103.98;1445035;90;21530;-63
2021/07/20 16:40:48;;;;;;;8.05;5.60;;;;;;;26.05;43.40;100096.64;1484877;88;21523;-64
2021/07/20 16:43:17;;;;;;;13.32;5.65;;;;;;;26.04;43.65;100111.28;1475287;87;21596;-64
2021/07/20 16:45:53;;;;;;;9.73;6.80;;;;;;;26.04;43.54;100126.20;1447087;90;21535;-64
2021/07/20 16:48:21;;;;;;;11.22;6.40;;;;;;;26.03;43.58;100125.91;1489685;88;21485;-64
2021/07/20 16:50:52;;;;;;;12.13;6.30;;;;;;;26.04;43.45;100123.48;1451420;90;21575;-64
2021/07/20 16:53:20;;;;;;;10.20;5.78;;;;;;;26.05;43.22;100129.19;1467984;88;21456;-66
2021/07/20 16:55:47;;;;;;;8.50;5.65;;;;;;;26.04;43.31;100131.63;1480179;88;21485;-66
2021/07/20 16:58:13;;;;;;;10.15;6.17;;;;;;;26.04;43.02;100132.98;1460155;87;22374;-67
2021/07/20 17:00:40;;;;;;;9.15;5.85;;;;;;;26.03;42.46;100147.59;1454254;89;21647;-66
2021/07/20 17:03:09;;;;;;;9.80;6.28;;;;;;;26.02;42.51;100143.26;1461964;88;21485;-66
2021/07/20 17:05:37;;;;;;;15.23;8.68;;;;;;;26.01;42.76;100145.70;1451723;88;22657;-66
2021/07/20 17:08:09;;;;;;;8.93;6.05;;;;;;;26.01;43.09;100153.83;1455816;89;21508;-67
2021/07/20 17:10:38;;;;;;;11.03;6.40;;;;;;;26.00;43.15;100149.46;1464671;88;21507;-66
2021/07/20 17:13:07;;;;;;;10.90;6.13;;;;;;;26.00;42.71;100148.11;1488540;88;22433;-66
2021/07/20 17:15:35;;;;;;;10.63;6.58;;;;;;;26.01;42.10;100145.70;1469096;88;21478;-67
2021/07/20 17:18:09;;;;;;;8.75;5.70;;;;;;;25.98;42.60;100157.05;1474177;87;21492;-67
2021/07/20 17:20:39;;;;;;;6.83;5.97;;;;;;;25.98;42.84;100157.05;1453156;89;21659;-66
2021/07/20 17:23:05;;;;;;;7.40;5.55;;;;;;;25.96;43.00;100164.62;1460111;87;21604;-66
2021/07/20 17:25:32;;;;;;;8.53;5.40;;;;;;;25.96;43.07;100164.62;1460223;89;21605;-67
2021/07/20 17:28:09;;;;;;;13.00;6.72;;;;;;;25.95;43.05;100171.12;1495916;88;22417;-67
2021/07/20 17:30:37;;;;;;;13.55;6.62;;;;;;;25.95;43.01;100176.55;1451682;89;21656;-66
2021/07/20 17:33:24;;;;;;;8.25;6.25;;;;;;;25.95;42.99;100176.55;1480445;88;21463;-67
2021/07/20 17:35:54;;;;;;;13.72;6.15;;;;;;;25.95;42.58;100178.41;1465882;89;21500;-68
2021/07/20 17:38:29;;;;;;;15.85;7.55;;;;;;;25.94;42.90;100191.70;1448510;88;21641;-66
2021/07/20 17:41:22;;;;;;;8.78;6.53;;;;;;;25.92;43.15;100191.12;1465621;88;22371;-66
2021/07/20 17:43:47;;;;;;;12.93;6.70;;;;;;;25.90;43.15;100198.17;1493367;87;21574;-65
2021/07/20 17:46:18;;;;;;;12.35;6.47;;;;;;;25.89;42.98;100206.01;1473071;87;21514;-65
2021/07/20 17:48:58;;;;;;;11.25;7.00;;;;;;;25.89;42.98;100208.72;1494087;88;21588;-65
2021/07/20 17:51:40;;;;;;;7.70;6.03;;;;;;;25.87;43.05;100210.89;1444108;87;21616;-65
2021/07/20 17:54:16;;;;;;;8.08;5.95;;;;;;;25.86;43.24;100216.00;1469359;88;21758;-65
2021/07/20 17:57:02;;;;;;;9.50;6.37;;;;;;;25.85;43.01;100219.26;1494454;87;21536;-65